sensor_id;sensor_type;location;lat;lon;timestamp;P1;durP1;ratioP1;P2;durP2;ratioP2
9914;SDS011;4996;48.746;9.174;2022-12-18T00:01:14;35.10;;;13.05;;
9914;SDS011;4996;48.746;9.174;2022-12-18T00:03:40;27.80;;;14.88;;
9914;SDS011;4996;48.746;9.174;2022-12-18T00:06:05;33.93;;;17.33;;
9914;SDS011;4996;48.746;9.174;2022-12-18T00:08:31;24.17;;;15.60;;
9914;SDS011;4996;48.746;9.174;2022-12-18T00:11:03;38.57;;;17.40;;
9914;SDS011;4996;48.746;9.174;2022-12-18T00:13:29;46.75;;;16.92;;
9914;SDS011;4996;48.746;9.174;2022-12-18T00:15:55;33.40;;;16.50;;
9914;SDS011;4996;48.746;9.174;2022-12-18T00:18:25;43.00;;;16.42;;
9914;SDS011;4996;48.746;9.174;2022-12-18T00:20:51;22.73;;;16.77;;
9914;SDS011;4996;48.746;9.174;2022-12-18T00:23:16;40.40;;;17.53;;
9914;SDS011;4996;48.746;9.174;2022-12-18T00:25:42;37.67;;;21.07;;
9914;SDS011;4996;48.746;9.174;2022-12-18T00:28:07;33.53;;;16.97;;
9914;SDS011;4996;48.746;9.174;2022-12-18T00:30:33;31.07;;;17.20;;
9914;SDS011;4996;48.746;9.174;2022-12-18T00:32:59;29.33;;;14.77;;
9914;SDS011;4996;48.746;9.174;2022-12-18T00:35:24;25.07;;;11.07;;
9914;SDS011;4996;48.746;9.174;2022-12-18T00:37:50;24.43;;;15.20;;
9914;SDS011;4996;48.746;9.174;2022-12-18T00:40:15;29.47;;;18.27;;
9914;SDS011;4996;48.746;9.174;2022-12-18T00:42:41;29.50;;;12.63;;
9914;SDS011;4996;48.746;9.174;2022-12-18T00:45:22;24.02;;;11.75;;
9914;SDS011;4996;48.746;9.174;2022-12-18T00:47:51;38.97;;;16.10;;
9914;SDS011;4996;48.746;9.174;2022-12-18T00:50:17;27.63;;;16.97;;
9914;SDS011;4996;48.746;9.174;2022-12-18T00:52:43;41.38;;;14.65;;
9914;SDS011;4996;48.746;9.174;2022-12-18T00:55:08;27.13;;;14.47;;
9914;SDS011;4996;48.746;9.174;2022-12-18T00:57:34;29.75;;;15.50;;
9914;SDS011;4996;48.746;9.174;2022-12-18T01:00:00;25.10;;;14.87;;
9914;SDS011;4996;48.746;9.174;2022-12-18T01:02:26;23.03;;;12.43;;
9914;SDS011;4996;48.746;9.174;2022-12-18T01:04:51;27.03;;;14.83;;
9914;SDS011;4996;48.746;9.174;2022-12-18T01:07:17;17.73;;;13.47;;
9914;SDS011;4996;48.746;9.174;2022-12-18T01:09:42;23.40;;;11.97;;
9914;SDS011;4996;48.746;9.174;2022-12-18T01:12:08;34.80;;;14.23;;
9914;SDS011;4996;48.746;9.174;2022-12-18T01:14:33;27.90;;;11.37;;
9914;SDS011;4996;48.746;9.174;2022-12-18T01:16:59;22.87;;;13.37;;
9914;SDS011;4996;48.746;9.174;2022-12-18T01:19:27;23.38;;;14.40;;
9914;SDS011;4996;48.746;9.174;2022-12-18T01:21:52;29.07;;;18.87;;
9914;SDS011;4996;48.746;9.174;2022-12-18T01:24:18;25.27;;;13.93;;
9914;SDS011;4996;48.746;9.174;2022-12-18T01:26:43;20.67;;;10.27;;
9914;SDS011;4996;48.746;9.174;2022-12-18T01:29:09;29.90;;;13.83;;
9914;SDS011;4996;48.746;9.174;2022-12-18T01:31:34;20.67;;;11.87;;
9914;SDS011;4996;48.746;9.174;2022-12-18T01:34:00;31.00;;;18.43;;
9914;SDS011;4996;48.746;9.174;2022-12-18T01:36:31;17.33;;;10.05;;
9914;SDS011;4996;48.746;9.174;2022-12-18T01:39:01;20.70;;;11.88;;
9914;SDS011;4996;48.746;9.174;2022-12-18T01:41:30;28.13;;;16.15;;
9914;SDS011;4996;48.746;9.174;2022-12-18T01:52:47;31.60;;;16.40;;
9914;SDS011;4996;48.746;9.174;2022-12-18T01:55:17;27.67;;;10.10;;
9914;SDS011;4996;48.746;9.174;2022-12-18T01:57:44;26.55;;;11.82;;
9914;SDS011;4996;48.746;9.174;2022-12-18T02:00:15;25.05;;;13.82;;
9914;SDS011;4996;48.746;9.174;2022-12-18T02:02:43;26.02;;;12.25;;
9914;SDS011;4996;48.746;9.174;2022-12-18T02:05:10;20.58;;;14.35;;
9914;SDS011;4996;48.746;9.174;2022-12-18T02:07:54;18.00;;;11.52;;
9914;SDS011;4996;48.746;9.174;2022-12-18T02:13:56;18.52;;;10.48;;
9914;SDS011;4996;48.746;9.174;2022-12-18T02:17:21;19.08;;;10.98;;
9914;SDS011;4996;48.746;9.174;2022-12-18T02:28:36;18.38;;;11.15;;
9914;SDS011;4996;48.746;9.174;2022-12-18T02:31:07;22.90;;;10.75;;
9914;SDS011;4996;48.746;9.174;2022-12-18T02:33:38;19.95;;;10.07;;
9914;SDS011;4996;48.746;9.174;2022-12-18T02:36:06;31.15;;;12.73;;
9914;SDS011;4996;48.746;9.174;2022-12-18T02:38:34;27.90;;;14.30;;
9914;SDS011;4996;48.746;9.174;2022-12-18T02:41:01;27.00;;;11.65;;
9914;SDS011;4996;48.746;9.174;2022-12-18T02:43:28;24.55;;;13.93;;
9914;SDS011;4996;48.746;9.174;2022-12-18T02:45:58;28.48;;;12.75;;
9914;SDS011;4996;48.746;9.174;2022-12-18T02:48:32;26.63;;;10.65;;
9914;SDS011;4996;48.746;9.174;2022-12-18T02:51:04;18.10;;;11.13;;
9914;SDS011;4996;48.746;9.174;2022-12-18T02:53:43;23.75;;;12.30;;
9914;SDS011;4996;48.746;9.174;2022-12-18T02:56:20;29.55;;;15.38;;
9914;SDS011;4996;48.746;9.174;2022-12-18T03:01:38;12.52;;;9.50;;
9914;SDS011;4996;48.746;9.174;2022-12-18T03:04:11;19.00;;;9.65;;
9914;SDS011;4996;48.746;9.174;2022-12-18T03:06:48;32.17;;;9.88;;
9914;SDS011;4996;48.746;9.174;2022-12-18T03:09:18;20.90;;;10.82;;
9914;SDS011;4996;48.746;9.174;2022-12-18T03:11:48;16.38;;;7.80;;
9914;SDS011;4996;48.746;9.174;2022-12-18T03:14:38;21.48;;;10.43;;
9914;SDS011;4996;48.746;9.174;2022-12-18T03:17:07;25.73;;;12.32;;
9914;SDS011;4996;48.746;9.174;2022-12-18T03:19:40;34.15;;;13.32;;
9914;SDS011;4996;48.746;9.174;2022-12-18T03:22:07;21.80;;;9.82;;
9914;SDS011;4996;48.746;9.174;2022-12-18T03:24:33;17.05;;;10.55;;
9914;SDS011;4996;48.746;9.174;2022-12-18T03:27:02;19.60;;;8.70;;
9914;SDS011;4996;48.746;9.174;2022-12-18T03:29:33;18.95;;;10.77;;
9914;SDS011;4996;48.746;9.174;2022-12-18T03:32:08;18.48;;;10.73;;
9914;SDS011;4996;48.746;9.174;2022-12-18T03:34:46;20.02;;;10.27;;
9914;SDS011;4996;48.746;9.174;2022-12-18T03:37:15;18.65;;;9.95;;
9914;SDS011;4996;48.746;9.174;2022-12-18T03:39:41;26.03;;;10.80;;
9914;SDS011;4996;48.746;9.174;2022-12-18T03:42:17;24.73;;;10.20;;
9914;SDS011;4996;48.746;9.174;2022-12-18T03:44:58;29.77;;;11.05;;
9914;SDS011;4996;48.746;9.174;2022-12-18T03:47:52;25.00;;;11.73;;
9914;SDS011;4996;48.746;9.174;2022-12-18T03:53:44;9.50;;;6.50;;
9914;SDS011;4996;48.746;9.174;2022-12-18T03:56:15;13.95;;;9.73;;
9914;SDS011;4996;48.746;9.174;2022-12-18T03:58:43;17.60;;;8.82;;
9914;SDS011;4996;48.746;9.174;2022-12-18T04:01:10;20.88;;;11.82;;
9914;SDS011;4996;48.746;9.174;2022-12-18T04:03:38;19.33;;;8.68;;
9914;SDS011;4996;48.746;9.174;2022-12-18T04:06:05;22.30;;;12.43;;
9914;SDS011;4996;48.746;9.174;2022-12-18T04:08:32;16.60;;;10.77;;
9914;SDS011;4996;48.746;9.174;2022-12-18T04:10:59;33.83;;;13.55;;
9914;SDS011;4996;48.746;9.174;2022-12-18T04:13:29;17.50;;;7.30;;
9914;SDS011;4996;48.746;9.174;2022-12-18T04:16:00;17.88;;;7.15;;
9914;SDS011;4996;48.746;9.174;2022-12-18T04:18:26;19.48;;;11.23;;
9914;SDS011;4996;48.746;9.174;2022-12-18T04:20:51;17.93;;;9.93;;
9914;SDS011;4996;48.746;9.174;2022-12-18T04:23:17;9.20;;;7.47;;
9914;SDS011;4996;48.746;9.174;2022-12-18T04:25:42;19.33;;;10.70;;
9914;SDS011;4996;48.746;9.174;2022-12-18T04:28:08;19.07;;;10.57;;
9914;SDS011;4996;48.746;9.174;2022-12-18T04:30:33;14.90;;;10.47;;
9914;SDS011;4996;48.746;9.174;2022-12-18T04:32:59;15.13;;;9.90;;
9914;SDS011;4996;48.746;9.174;2022-12-18T04:35:25;16.63;;;7.50;;
9914;SDS011;4996;48.746;9.174;2022-12-18T04:37:50;17.10;;;9.50;;
9914;SDS011;4996;48.746;9.174;2022-12-18T04:40:16;29.13;;;9.63;;
9914;SDS011;4996;48.746;9.174;2022-12-18T04:42:41;15.20;;;7.20;;
9914;SDS011;4996;48.746;9.174;2022-12-18T04:45:07;16.83;;;8.40;;
9914;SDS011;4996;48.746;9.174;2022-12-18T04:47:33;16.42;;;6.63;;
9914;SDS011;4996;48.746;9.174;2022-12-18T04:49:58;15.27;;;10.50;;
9914;SDS011;4996;48.746;9.174;2022-12-18T04:52:24;17.70;;;9.80;;
9914;SDS011;4996;48.746;9.174;2022-12-18T04:54:50;16.40;;;9.50;;
9914;SDS011;4996;48.746;9.174;2022-12-18T04:57:15;19.97;;;10.30;;
9914;SDS011;4996;48.746;9.174;2022-12-18T04:59:42;21.98;;;7.18;;
9914;SDS011;4996;48.746;9.174;2022-12-18T05:02:08;13.57;;;6.20;;
9914;SDS011;4996;48.746;9.174;2022-12-18T05:04:34;22.13;;;12.73;;
9914;SDS011;4996;48.746;9.174;2022-12-18T05:06:59;29.93;;;11.07;;
9914;SDS011;4996;48.746;9.174;2022-12-18T05:09:25;20.10;;;10.27;;
9914;SDS011;4996;48.746;9.174;2022-12-18T05:11:50;14.00;;;7.23;;
9914;SDS011;4996;48.746;9.174;2022-12-18T05:14:16;6.90;;;5.70;;
9914;SDS011;4996;48.746;9.174;2022-12-18T05:16:41;15.60;;;6.80;;
9914;SDS011;4996;48.746;9.174;2022-12-18T05:19:07;28.93;;;11.53;;
9914;SDS011;4996;48.746;9.174;2022-12-18T05:21:32;14.90;;;9.27;;
9914;SDS011;4996;48.746;9.174;2022-12-18T05:23:58;11.90;;;7.10;;
9914;SDS011;4996;48.746;9.174;2022-12-18T05:26:24;17.23;;;8.43;;
9914;SDS011;4996;48.746;9.174;2022-12-18T05:28:49;15.53;;;7.53;;
9914;SDS011;4996;48.746;9.174;2022-12-18T05:31:15;21.47;;;10.53;;
9914;SDS011;4996;48.746;9.174;2022-12-18T05:33:41;24.57;;;11.47;;
9914;SDS011;4996;48.746;9.174;2022-12-18T05:36:07;15.50;;;7.00;;
9914;SDS011;4996;48.746;9.174;2022-12-18T05:38:34;22.38;;;10.02;;
9914;SDS011;4996;48.746;9.174;2022-12-18T05:41:01;20.20;;;9.43;;
9914;SDS011;4996;48.746;9.174;2022-12-18T05:43:27;17.27;;;8.55;;
9914;SDS011;4996;48.746;9.174;2022-12-18T05:45:53;26.50;;;8.85;;
9914;SDS011;4996;48.746;9.174;2022-12-18T05:48:19;22.30;;;10.17;;
9914;SDS011;4996;48.746;9.174;2022-12-18T05:50:46;13.63;;;8.73;;
9914;SDS011;4996;48.746;9.174;2022-12-18T05:53:13;16.02;;;9.73;;
9914;SDS011;4996;48.746;9.174;2022-12-18T05:55:41;22.02;;;8.70;;
9914;SDS011;4996;48.746;9.174;2022-12-18T05:58:09;26.35;;;9.82;;
9914;SDS011;4996;48.746;9.174;2022-12-18T06:00:39;7.85;;;6.97;;
9914;SDS011;4996;48.746;9.174;2022-12-18T06:03:07;6.70;;;4.40;;
9914;SDS011;4996;48.746;9.174;2022-12-18T06:05:39;12.68;;;7.68;;
9914;SDS011;4996;48.746;9.174;2022-12-18T06:08:05;23.65;;;8.70;;
9914;SDS011;4996;48.746;9.174;2022-12-18T06:10:31;37.87;;;10.83;;
9914;SDS011;4996;48.746;9.174;2022-12-18T06:12:57;21.93;;;6.33;;
9914;SDS011;4996;48.746;9.174;2022-12-18T06:15:22;10.37;;;9.37;;
9914;SDS011;4996;48.746;9.174;2022-12-18T06:17:48;14.70;;;10.23;;
9914;SDS011;4996;48.746;9.174;2022-12-18T06:20:14;7.27;;;5.97;;
9914;SDS011;4996;48.746;9.174;2022-12-18T06:22:39;12.53;;;7.47;;
9914;SDS011;4996;48.746;9.174;2022-12-18T06:25:05;19.93;;;10.20;;
9914;SDS011;4996;48.746;9.174;2022-12-18T06:27:31;11.33;;;8.00;;
9914;SDS011;4996;48.746;9.174;2022-12-18T06:29:58;22.17;;;10.70;;
9914;SDS011;4996;48.746;9.174;2022-12-18T06:32:24;19.90;;;8.03;;
9914;SDS011;4996;48.746;9.174;2022-12-18T06:34:49;21.77;;;13.60;;
9914;SDS011;4996;48.746;9.174;2022-12-18T06:37:15;17.87;;;8.03;;
9914;SDS011;4996;48.746;9.174;2022-12-18T06:39:40;17.40;;;9.03;;
9914;SDS011;4996;48.746;9.174;2022-12-18T06:42:06;18.93;;;9.67;;
9914;SDS011;4996;48.746;9.174;2022-12-18T06:44:31;18.93;;;10.70;;
9914;SDS011;4996;48.746;9.174;2022-12-18T06:46:57;23.93;;;10.70;;
9914;SDS011;4996;48.746;9.174;2022-12-18T06:49:22;32.60;;;12.30;;
9914;SDS011;4996;48.746;9.174;2022-12-18T06:51:48;10.40;;;4.47;;
9914;SDS011;4996;48.746;9.174;2022-12-18T06:54:13;28.40;;;9.53;;
9914;SDS011;4996;48.746;9.174;2022-12-18T06:56:39;15.83;;;8.00;;
9914;SDS011;4996;48.746;9.174;2022-12-18T06:59:04;8.73;;;5.13;;
9914;SDS011;4996;48.746;9.174;2022-12-18T07:01:30;20.50;;;10.53;;
9914;SDS011;4996;48.746;9.174;2022-12-18T07:03:56;8.37;;;4.70;;
9914;SDS011;4996;48.746;9.174;2022-12-18T07:06:23;12.52;;;7.38;;
9914;SDS011;4996;48.746;9.174;2022-12-18T07:08:50;10.25;;;6.43;;
9914;SDS011;4996;48.746;9.174;2022-12-18T07:11:17;28.50;;;9.00;;
9914;SDS011;4996;48.746;9.174;2022-12-18T07:13:43;10.25;;;6.95;;
9914;SDS011;4996;48.746;9.174;2022-12-18T07:16:17;11.60;;;6.95;;
9914;SDS011;4996;48.746;9.174;2022-12-18T07:18:44;18.75;;;8.07;;
9914;SDS011;4996;48.746;9.174;2022-12-18T07:21:13;18.65;;;11.60;;
9914;SDS011;4996;48.746;9.174;2022-12-18T07:23:41;8.98;;;5.97;;
9914;SDS011;4996;48.746;9.174;2022-12-18T07:26:07;16.03;;;10.13;;
9914;SDS011;4996;48.746;9.174;2022-12-18T07:28:36;12.88;;;7.07;;
9914;SDS011;4996;48.746;9.174;2022-12-18T07:31:05;19.58;;;9.63;;
9914;SDS011;4996;48.746;9.174;2022-12-18T07:33:33;10.43;;;7.75;;
9914;SDS011;4996;48.746;9.174;2022-12-18T07:35:59;16.37;;;10.60;;
9914;SDS011;4996;48.746;9.174;2022-12-18T07:38:25;14.18;;;6.45;;
9914;SDS011;4996;48.746;9.174;2022-12-18T07:40:50;10.03;;;7.60;;
9914;SDS011;4996;48.746;9.174;2022-12-18T07:43:16;11.70;;;6.83;;
9914;SDS011;4996;48.746;9.174;2022-12-18T07:45:42;9.40;;;6.93;;
9914;SDS011;4996;48.746;9.174;2022-12-18T07:48:08;16.95;;;7.97;;
9914;SDS011;4996;48.746;9.174;2022-12-18T07:50:34;16.50;;;9.10;;
9914;SDS011;4996;48.746;9.174;2022-12-18T07:52:59;17.77;;;8.67;;
9914;SDS011;4996;48.746;9.174;2022-12-18T07:55:28;21.52;;;11.90;;
9914;SDS011;4996;48.746;9.174;2022-12-18T07:57:55;14.70;;;8.68;;
9914;SDS011;4996;48.746;9.174;2022-12-18T08:00:21;18.33;;;9.67;;
9914;SDS011;4996;48.746;9.174;2022-12-18T08:02:46;15.00;;;8.60;;
9914;SDS011;4996;48.746;9.174;2022-12-18T08:05:12;22.20;;;9.07;;
9914;SDS011;4996;48.746;9.174;2022-12-18T08:07:38;16.80;;;10.43;;
9914;SDS011;4996;48.746;9.174;2022-12-18T08:10:04;27.40;;;10.00;;
9914;SDS011;4996;48.746;9.174;2022-12-18T08:12:30;27.85;;;11.13;;
9914;SDS011;4996;48.746;9.174;2022-12-18T08:14:56;23.13;;;10.50;;
9914;SDS011;4996;48.746;9.174;2022-12-18T08:17:21;16.87;;;9.37;;
9914;SDS011;4996;48.746;9.174;2022-12-18T08:19:47;11.77;;;6.93;;
9914;SDS011;4996;48.746;9.174;2022-12-18T08:22:12;11.67;;;8.77;;
9914;SDS011;4996;48.746;9.174;2022-12-18T08:24:38;23.00;;;11.77;;
9914;SDS011;4996;48.746;9.174;2022-12-18T08:27:04;22.73;;;10.73;;
9914;SDS011;4996;48.746;9.174;2022-12-18T08:29:29;25.77;;;8.37;;
9914;SDS011;4996;48.746;9.174;2022-12-18T08:31:55;16.60;;;9.50;;
9914;SDS011;4996;48.746;9.174;2022-12-18T08:34:21;19.53;;;10.83;;
9914;SDS011;4996;48.746;9.174;2022-12-18T08:36:46;10.43;;;7.20;;
9914;SDS011;4996;48.746;9.174;2022-12-18T08:39:12;18.63;;;10.03;;
9914;SDS011;4996;48.746;9.174;2022-12-18T08:41:37;21.50;;;10.17;;
9914;SDS011;4996;48.746;9.174;2022-12-18T08:44:03;26.57;;;11.23;;
9914;SDS011;4996;48.746;9.174;2022-12-18T08:46:47;18.83;;;8.82;;
9914;SDS011;4996;48.746;9.174;2022-12-18T08:49:12;18.87;;;11.50;;
9914;SDS011;4996;48.746;9.174;2022-12-18T08:51:38;10.73;;;7.53;;
9914;SDS011;4996;48.746;9.174;2022-12-18T08:54:05;20.85;;;8.48;;
9914;SDS011;4996;48.746;9.174;2022-12-18T08:56:31;22.77;;;11.20;;
9914;SDS011;4996;48.746;9.174;2022-12-18T08:58:57;20.00;;;10.13;;
9914;SDS011;4996;48.746;9.174;2022-12-18T09:01:23;28.67;;;14.97;;
9914;SDS011;4996;48.746;9.174;2022-12-18T09:03:49;21.35;;;8.48;;
9914;SDS011;4996;48.746;9.174;2022-12-18T09:06:16;22.63;;;11.43;;
9914;SDS011;4996;48.746;9.174;2022-12-18T09:08:45;21.45;;;13.40;;
9914;SDS011;4996;48.746;9.174;2022-12-18T09:11:12;22.60;;;10.98;;
9914;SDS011;4996;48.746;9.174;2022-12-18T09:13:40;22.15;;;11.65;;
9914;SDS011;4996;48.746;9.174;2022-12-18T09:16:06;25.00;;;12.63;;
9914;SDS011;4996;48.746;9.174;2022-12-18T09:18:31;31.87;;;12.70;;
9914;SDS011;4996;48.746;9.174;2022-12-18T09:20:57;28.20;;;14.30;;
9914;SDS011;4996;48.746;9.174;2022-12-18T09:23:22;32.10;;;15.73;;
9914;SDS011;4996;48.746;9.174;2022-12-18T09:25:48;20.10;;;12.27;;
9914;SDS011;4996;48.746;9.174;2022-12-18T09:28:15;30.47;;;14.73;;
9914;SDS011;4996;48.746;9.174;2022-12-18T09:30:42;30.90;;;17.17;;
9914;SDS011;4996;48.746;9.174;2022-12-18T09:33:10;37.00;;;16.23;;
9914;SDS011;4996;48.746;9.174;2022-12-18T09:35:36;31.07;;;14.70;;
9914;SDS011;4996;48.746;9.174;2022-12-18T09:38:02;23.17;;;12.07;;
9914;SDS011;4996;48.746;9.174;2022-12-18T09:40:28;38.47;;;15.43;;
9914;SDS011;4996;48.746;9.174;2022-12-18T09:43:00;33.08;;;18.70;;
9914;SDS011;4996;48.746;9.174;2022-12-18T09:48:23;37.90;;;16.08;;
9914;SDS011;4996;48.746;9.174;2022-12-18T09:50:54;31.02;;;17.02;;
9914;SDS011;4996;48.746;9.174;2022-12-18T09:53:26;34.78;;;17.25;;
9914;SDS011;4996;48.746;9.174;2022-12-18T09:55:56;31.42;;;16.50;;
9914;SDS011;4996;48.746;9.174;2022-12-18T09:58:30;23.50;;;14.20;;
9914;SDS011;4996;48.746;9.174;2022-12-18T10:00:56;27.10;;;15.45;;
9914;SDS011;4996;48.746;9.174;2022-12-18T10:03:22;21.73;;;11.53;;
9914;SDS011;4996;48.746;9.174;2022-12-18T10:09:19;35.58;;;16.38;;
9914;SDS011;4996;48.746;9.174;2022-12-18T10:11:56;20.58;;;12.02;;
9914;SDS011;4996;48.746;9.174;2022-12-18T10:20:13;28.02;;;14.63;;
9914;SDS011;4996;48.746;9.174;2022-12-18T10:23:01;27.65;;;13.23;;
9914;SDS011;4996;48.746;9.174;2022-12-18T10:28:17;34.95;;;17.30;;
9914;SDS011;4996;48.746;9.174;2022-12-18T10:30:44;50.13;;;20.90;;
9914;SDS011;4996;48.746;9.174;2022-12-18T10:33:13;30.80;;;18.23;;
9914;SDS011;4996;48.746;9.174;2022-12-18T10:35:43;44.67;;;19.25;;
9914;SDS011;4996;48.746;9.174;2022-12-18T10:51:26;36.72;;;20.27;;
9914;SDS011;4996;48.746;9.174;2022-12-18T10:56:29;41.50;;;18.88;;
9914;SDS011;4996;48.746;9.174;2022-12-18T10:59:00;50.55;;;24.90;;
9914;SDS011;4996;48.746;9.174;2022-12-18T11:07:09;38.80;;;19.30;;
9914;SDS011;4996;48.746;9.174;2022-12-18T11:09:36;35.73;;;20.50;;
9914;SDS011;4996;48.746;9.174;2022-12-18T11:12:04;38.40;;;20.10;;
9914;SDS011;4996;48.746;9.174;2022-12-18T11:14:50;34.80;;;18.57;;
9914;SDS011;4996;48.746;9.174;2022-12-18T11:17:22;42.53;;;21.43;;
9914;SDS011;4996;48.746;9.174;2022-12-18T11:19:53;33.65;;;18.60;;
9914;SDS011;4996;48.746;9.174;2022-12-18T11:22:22;34.33;;;18.53;;
9914;SDS011;4996;48.746;9.174;2022-12-18T11:24:55;36.47;;;19.50;;
9914;SDS011;4996;48.746;9.174;2022-12-18T11:27:23;37.00;;;20.15;;
9914;SDS011;4996;48.746;9.174;2022-12-18T11:29:49;33.00;;;16.60;;
9914;SDS011;4996;48.746;9.174;2022-12-18T11:35:14;28.70;;;14.88;;
9914;SDS011;4996;48.746;9.174;2022-12-18T11:37:53;28.08;;;14.18;;
9914;SDS011;4996;48.746;9.174;2022-12-18T11:40:27;28.95;;;15.35;;
9914;SDS011;4996;48.746;9.174;2022-12-18T11:43:00;31.60;;;13.43;;
9914;SDS011;4996;48.746;9.174;2022-12-18T11:45:35;38.25;;;11.70;;
9914;SDS011;4996;48.746;9.174;2022-12-18T11:48:17;44.70;;;15.40;;
9914;SDS011;4996;48.746;9.174;2022-12-18T11:51:02;29.05;;;13.20;;
9914;SDS011;4996;48.746;9.174;2022-12-18T11:53:34;42.80;;;16.17;;
9914;SDS011;4996;48.746;9.174;2022-12-18T11:56:26;24.25;;;12.90;;
9914;SDS011;4996;48.746;9.174;2022-12-18T12:07:53;24.40;;;10.93;;
9914;SDS011;4996;48.746;9.174;2022-12-18T12:10:34;20.13;;;9.43;;
9914;SDS011;4996;48.746;9.174;2022-12-18T12:13:15;36.80;;;14.85;;
9914;SDS011;4996;48.746;9.174;2022-12-18T12:21:41;30.85;;;12.77;;
9914;SDS011;4996;48.746;9.174;2022-12-18T12:26:58;36.58;;;15.40;;
9914;SDS011;4996;48.746;9.174;2022-12-18T12:29:49;33.90;;;15.93;;
9914;SDS011;4996;48.746;9.174;2022-12-18T12:32:32;37.17;;;17.65;;
9914;SDS011;4996;48.746;9.174;2022-12-18T12:35:15;38.88;;;17.70;;
9914;SDS011;4996;48.746;9.174;2022-12-18T12:40:28;29.52;;;13.52;;
9914;SDS011;4996;48.746;9.174;2022-12-18T12:43:02;32.10;;;14.95;;
9914;SDS011;4996;48.746;9.174;2022-12-18T12:45:40;44.15;;;16.83;;
9914;SDS011;4996;48.746;9.174;2022-12-18T12:51:09;36.60;;;16.90;;
9914;SDS011;4996;48.746;9.174;2022-12-18T12:53:38;31.85;;;16.63;;
9914;SDS011;4996;48.746;9.174;2022-12-18T12:56:06;33.28;;;14.30;;
9914;SDS011;4996;48.746;9.174;2022-12-18T13:04:00;30.27;;;14.25;;
9914;SDS011;4996;48.746;9.174;2022-12-18T13:06:45;32.90;;;13.80;;
9914;SDS011;4996;48.746;9.174;2022-12-18T13:09:21;35.65;;;16.80;;
9914;SDS011;4996;48.746;9.174;2022-12-18T13:11:46;36.27;;;16.47;;
9914;SDS011;4996;48.746;9.174;2022-12-18T13:14:35;30.75;;;14.88;;
9914;SDS011;4996;48.746;9.174;2022-12-18T13:19:49;40.13;;;15.05;;
9914;SDS011;4996;48.746;9.174;2022-12-18T13:22:23;28.73;;;13.20;;
9914;SDS011;4996;48.746;9.174;2022-12-18T13:24:53;54.33;;;18.45;;
9914;SDS011;4996;48.746;9.174;2022-12-18T13:27:44;34.63;;;15.77;;
9914;SDS011;4996;48.746;9.174;2022-12-18T13:30:56;25.35;;;13.25;;
9914;SDS011;4996;48.746;9.174;2022-12-18T13:33:57;33.80;;;15.05;;
9914;SDS011;4996;48.746;9.174;2022-12-18T13:38:47;27.90;;;14.10;;
9914;SDS011;4996;48.746;9.174;2022-12-18T13:41:32;32.45;;;15.95;;
9914;SDS011;4996;48.746;9.174;2022-12-18T13:46:46;31.48;;;14.95;;
9914;SDS011;4996;48.746;9.174;2022-12-18T13:51:41;36.30;;;14.10;;
9914;SDS011;4996;48.746;9.174;2022-12-18T13:57:04;38.20;;;15.13;;
9914;SDS011;4996;48.746;9.174;2022-12-18T14:02:14;31.52;;;15.13;;
9914;SDS011;4996;48.746;9.174;2022-12-18T14:04:44;27.27;;;13.95;;
9914;SDS011;4996;48.746;9.174;2022-12-18T14:07:12;33.53;;;16.13;;
9914;SDS011;4996;48.746;9.174;2022-12-18T14:09:42;28.75;;;13.05;;
9914;SDS011;4996;48.746;9.174;2022-12-18T14:12:17;34.67;;;15.48;;
9914;SDS011;4996;48.746;9.174;2022-12-18T14:15:17;35.88;;;13.52;;
9914;SDS011;4996;48.746;9.174;2022-12-18T14:17:52;37.25;;;14.80;;
9914;SDS011;4996;48.746;9.174;2022-12-18T14:20:28;28.85;;;14.30;;
9914;SDS011;4996;48.746;9.174;2022-12-18T14:22:56;20.65;;;11.13;;
9914;SDS011;4996;48.746;9.174;2022-12-18T14:25:23;43.83;;;15.45;;
9914;SDS011;4996;48.746;9.174;2022-12-18T14:30:38;31.15;;;12.10;;
9914;SDS011;4996;48.746;9.174;2022-12-18T14:33:12;38.65;;;12.77;;
9914;SDS011;4996;48.746;9.174;2022-12-18T14:35:51;37.13;;;14.00;;
9914;SDS011;4996;48.746;9.174;2022-12-18T14:38:29;29.88;;;14.05;;
9914;SDS011;4996;48.746;9.174;2022-12-18T14:41:03;26.15;;;12.32;;
9914;SDS011;4996;48.746;9.174;2022-12-18T14:43:37;26.02;;;13.43;;
9914;SDS011;4996;48.746;9.174;2022-12-18T14:46:05;40.28;;;16.10;;
9914;SDS011;4996;48.746;9.174;2022-12-18T14:48:50;33.40;;;14.30;;
9914;SDS011;4996;48.746;9.174;2022-12-18T14:51:20;28.65;;;13.90;;
9914;SDS011;4996;48.746;9.174;2022-12-18T14:53:47;47.10;;;17.95;;
9914;SDS011;4996;48.746;9.174;2022-12-18T14:58:44;25.90;;;13.80;;
9914;SDS011;4996;48.746;9.174;2022-12-18T15:01:17;36.47;;;18.10;;
9914;SDS011;4996;48.746;9.174;2022-12-18T15:03:44;42.25;;;18.13;;
9914;SDS011;4996;48.746;9.174;2022-12-18T15:06:17;33.30;;;16.47;;
9914;SDS011;4996;48.746;9.174;2022-12-18T15:08:48;34.85;;;14.95;;
9914;SDS011;4996;48.746;9.174;2022-12-18T15:13:54;37.25;;;17.90;;
9914;SDS011;4996;48.746;9.174;2022-12-18T15:16:19;37.40;;;17.13;;
9914;SDS011;4996;48.746;9.174;2022-12-18T15:18:45;35.73;;;14.77;;
9914;SDS011;4996;48.746;9.174;2022-12-18T15:21:15;28.58;;;15.13;;
9914;SDS011;4996;48.746;9.174;2022-12-18T15:26:09;35.83;;;14.70;;
9914;SDS011;4996;48.746;9.174;2022-12-18T15:28:38;37.45;;;14.60;;
9914;SDS011;4996;48.746;9.174;2022-12-18T15:33:35;31.03;;;12.90;;
9914;SDS011;4996;48.746;9.174;2022-12-18T15:36:04;30.83;;;13.48;;
9914;SDS011;4996;48.746;9.174;2022-12-18T15:38:33;34.33;;;13.40;;
9914;SDS011;4996;48.746;9.174;2022-12-18T15:40:59;27.77;;;11.83;;
9914;SDS011;4996;48.746;9.174;2022-12-18T15:43:25;41.80;;;18.60;;
9914;SDS011;4996;48.746;9.174;2022-12-18T15:46:05;36.38;;;14.77;;
9914;SDS011;4996;48.746;9.174;2022-12-18T15:48:33;22.40;;;13.63;;
9914;SDS011;4996;48.746;9.174;2022-12-18T15:51:01;36.25;;;15.35;;
9914;SDS011;4996;48.746;9.174;2022-12-18T15:53:30;36.27;;;15.20;;
9914;SDS011;4996;48.746;9.174;2022-12-18T15:55:58;31.42;;;16.40;;
9914;SDS011;4996;48.746;9.174;2022-12-18T15:58:43;51.30;;;18.05;;
9914;SDS011;4996;48.746;9.174;2022-12-18T16:01:09;34.77;;;14.27;;
9914;SDS011;4996;48.746;9.174;2022-12-18T16:03:35;39.25;;;15.38;;
9914;SDS011;4996;48.746;9.174;2022-12-18T16:06:01;29.53;;;15.97;;
9914;SDS011;4996;48.746;9.174;2022-12-18T16:08:27;35.13;;;17.83;;
9914;SDS011;4996;48.746;9.174;2022-12-18T16:10:54;36.28;;;15.88;;
9914;SDS011;4996;48.746;9.174;2022-12-18T16:13:19;39.67;;;18.55;;
9914;SDS011;4996;48.746;9.174;2022-12-18T16:15:45;34.00;;;16.03;;
9914;SDS011;4996;48.746;9.174;2022-12-18T16:18:11;46.17;;;17.30;;
9914;SDS011;4996;48.746;9.174;2022-12-18T16:20:36;36.63;;;16.27;;
9914;SDS011;4996;48.746;9.174;2022-12-18T16:23:03;31.85;;;15.55;;
9914;SDS011;4996;48.746;9.174;2022-12-18T16:25:29;36.00;;;15.17;;
9914;SDS011;4996;48.746;9.174;2022-12-18T16:27:55;37.28;;;12.65;;
9914;SDS011;4996;48.746;9.174;2022-12-18T16:30:23;20.80;;;10.90;;
9914;SDS011;4996;48.746;9.174;2022-12-18T16:32:52;44.15;;;18.50;;
9914;SDS011;4996;48.746;9.174;2022-12-18T16:35:18;26.33;;;13.00;;
9914;SDS011;4996;48.746;9.174;2022-12-18T16:37:43;40.73;;;16.63;;
9914;SDS011;4996;48.746;9.174;2022-12-18T16:40:10;34.17;;;15.73;;
9914;SDS011;4996;48.746;9.174;2022-12-18T16:42:38;40.28;;;16.20;;
9914;SDS011;4996;48.746;9.174;2022-12-18T16:45:05;35.92;;;15.50;;
9914;SDS011;4996;48.746;9.174;2022-12-18T16:47:32;26.00;;;13.60;;
9914;SDS011;4996;48.746;9.174;2022-12-18T16:49:58;24.75;;;12.68;;
9914;SDS011;4996;48.746;9.174;2022-12-18T16:52:23;35.93;;;15.20;;
9914;SDS011;4996;48.746;9.174;2022-12-18T16:54:49;41.03;;;15.70;;
9914;SDS011;4996;48.746;9.174;2022-12-18T16:57:15;33.87;;;15.87;;
9914;SDS011;4996;48.746;9.174;2022-12-18T16:59:42;28.10;;;11.63;;
9914;SDS011;4996;48.746;9.174;2022-12-18T17:02:11;37.15;;;13.18;;
9914;SDS011;4996;48.746;9.174;2022-12-18T17:04:39;48.10;;;18.00;;
9914;SDS011;4996;48.746;9.174;2022-12-18T17:07:05;24.75;;;14.02;;